x

Diamond Shoals (41025) Wave Buoy

12:50 - Thu 19th Jan 2017 All times are EST. -5 hours from GMT.

  • Sig Wave height 5.9ft
  • Swell Direction
  • Peak Period 11s
  • Average Period 7s
  • Wind
    16mph, 18mph gusts
  • Sea Temp 76°f
  • Aire Temp 52°f
  • Sea Pressure 1017.3mb
  • Diamond Shoals
  • Diamond Shoals

More Historic Weather Station data

Upgrade to MSW Pro to gain access to the past 30 days of data for over 8000 Wavebouys and Weather Stations around the globe.

Join Pro

Comparision Forecast

View Surf forecast
   
jue 01/19 12:50 6ft 11s 7s 16 18 mph 1017.3mb 76f 52f
11:50 6.5ft 11s 7s 16 20 mph 1018.1mb 76f 53f
10:50 7ft 11s 7s 16 20 mph 1019.4mb 76f 52f
9:50 6ft 11s 7s 18 22 mph 1018.9mb 75f 52f
8:50 6.5ft 10s 6s 18 25 mph 1018.5mb 75f 52f
7:50 6ft 10s 6s 20 25 mph 1017.5mb 75f 53f
6:50 6ft 10s 6s 22 27 mph 1016.8mb 75f 53f
5:50 5.5ft 11s 6s 22 27 mph 1016.3mb 75f 53f
4:50 5ft 7s 6s 20 25 mph 1016.4mb 75f 52f
3:50 5ft 8s 6s 16 22 mph 1016.6mb 75f 52f
2:50 4.5ft 8s 6s 16 22 mph 1016.5mb 75f 53f
1:50 4.5ft 7s 6s 16 20 mph 1016.4mb 75f 53f
12:50 4.5ft 6s 6s 18 22 mph 1016.3mb 76f 54f
mié 01/18 11:50 5ft 8s 6s 18 22 mph 1016.5mb 75f 54f
10:50 4.5ft 7s 5s 20 27 mph 1016.5mb 75f 55f
9:50 5.5ft 6s 6s 22 29 mph 1016.3mb 74f 55f
8:50 5.5ft 6s 5s 27 34 mph 1015.5mb 73f 56f
7:50 5ft 6s 5s 29 36 mph 1015mb 72f 57f
6:50 5ft 6s 5s 29 36 mph 1014.6mb 72f 56f
5:50 6ft 6s 5s 31 38 mph 1014mb 72f 55f
4:50 6.5ft 5s 5s 31 36 mph 1013.1mb 72f 56f
3:50 6ft 7s 5s 31 38 mph 1012.3mb 71f 57f
2:50 7ft 7s 5s 25 36 mph 1010.7mb 72f 63f
1:50 7ft 7s 5s 25 29 mph 1010.1mb 72f 64f
12:50 8.5ft 8s 6s 25 29 mph 1010.6mb 72f 65f
11:50 7.5ft 7s 5s 29 36 mph 1012.1mb 72f 65f
10:50 8.5ft 7s 6s 29 34 mph 1013mb 72f 68f
9:50 9ft 7s 6s 29 36 mph 1013.6mb 71f 68f
8:50 8ft 6s 5s 29 36 mph 1013.5mb 71f 68f
7:50 7.5ft 6s 5s 27 31 mph 1013.9mb 71f 69f
6:50 8ft 6s 5s 29 34 mph 1013.9mb 71f 69f
5:50 7.5ft 6s 5s 31 38 mph 1013.9mb 72f 70f
4:50 7ft 6s 5s 29 34 mph 1014.5mb 72f 70f
3:50 7ft 6s 5s 25 31 mph 1014.9mb 72f 70f
2:50 6ft 6s 5s 27 31 mph 1015.5mb 71f 70f
1:50 4.5ft 5s 4s 29 31 mph 1016.1mb 71f 71f
12:50 4.5ft 5s 4s 29 34 mph 1015.5mb 72f 71f
mar 01/17 11:50 4ft 5s 4s 22 27 mph 1018.2mb 73f 71f
10:50 4ft 5s 4s 22 25 mph 1019mb 73f 71f
9:50 3.5ft 4s 4s 25 27 mph 1019.3mb 73f 71f
8:50 3.5ft 4s 4s 22 25 mph 1019.7mb 73f 71f
7:50 3.5ft 4s 4s 20 25 mph 1019.6mb 73f 70f
6:50 2.5ft 10s 4s 20 25 mph 1020.3mb 73f 70f
5:50 2.5ft 8s 4s 18 22 mph 1020.8mb 73f 70f
4:50 2ft 9s 6s 18 20 mph 1020.8mb 73f 70f
3:50 2ft 8s 6s 9
mph
1021.3mb 73f 67f
2:50 2.5ft 8s 6s 4 7 mph 1021.4mb 73f 64f
1:50 2.5ft 9s 6s 2
mph
1022.4mb 73f 61f
12:50 2.5ft 8s 6s 4 7 mph 1022.8mb 73f 59f
11:50 2.5ft 8s 6s 9 11 mph 1023.7mb 73f 58f
10:50 2.5ft 8s 6s 4 7 mph 1024.9mb 73f 60f
9:50 2.5ft 9s 5s 7 9 mph 1024.9mb 73f 59f
8:50 2.5ft 10s 5s 7 9 mph 1025mb 73f 59f
7:50 2.5ft 10s 5s 9 11 mph 1024.7mb 73f 58f
6:50 2.5ft 8s 5s 11 13 mph 1024.4mb 73f 56f
5:50 2.5ft 8s 5s 9 11 mph 1024.3mb 73f 56f
4:50 2.5ft 8s 5s 9 11 mph 1024.6mb 73f 55f
3:50 2.5ft 8s 5s 11 13 mph 1024.8mb 73f 56f
2:50 3ft 9s 6s 9
mph
1024.9mb 73f 56f
1:50 3ft 10s 5s 11 13 mph 1025.3mb 73f 56f
12:50 3ft 8s 5s 11 13 mph 1025.2mb 73f 56f
lun 01/16 11:50 3ft 8s 5s 11 13 mph 1025.9mb 73f 56f
10:50 3ft 8s 5s 13 16 mph 1026.2mb 73f 55f
9:50 3.5ft 8s 5s 16 18 mph 1027mb 73f 55f
8:50 3.5ft 8s 5s 16 18 mph 1027.1mb 73f 55f
7:50 3.5ft 7s 5s 13 16 mph 1027.2mb 73f 55f
6:50 3.5ft 8s 5s 16 18 mph 1027.6mb 73f 55f
5:50 3.5ft 7s 5s 16 18 mph 1027.7mb 73f 55f
4:50 3.5ft 8s 5s 16 20 mph 1027.5mb 73f 56f
3:50 4ft 8s 5s 18 22 mph 1027.6mb 74f 55f
2:50 4ft 8s 5s 18 22 mph 1027.8mb 74f 54f
1:50 4.5ft 8s 5s 20 22 mph 1027.6mb 74f 54f
12:50 4.5ft 6s 5s 20 25 mph 1028.3mb 74f 55f
11:50 4.5ft 8s 5s 20 25 mph 1028.8mb 74f 57f
10:50 4.5ft 5s 5s 18 22 mph 1029.5mb 74f 57f
9:50 4.5ft 5s 5s 20 22 mph 1029.4mb 74f 58f
8:50 5ft 5s 5s 20 25 mph 1029.1mb 73f 55f
7:50 4.5ft 6s 5s 20 25 mph 1028.8mb 74f 57f
6:50 5ft 6s 5s 20 22 mph 1028.3mb 74f 57f
5:50 5ft 5s 5s 22 27 mph 1027.6mb 74f 57f
4:50 5ft 5s 5s 20 25 mph 1027.1mb 74f 57f
3:50 4.5ft 5s 5s 20 25 mph 1027.3mb 74f 56f
2:50 4.5ft 11s 5s 20 25 mph 1027.7mb 74f 54f
1:50 4ft 8s 5s 20 22 mph 1027.7mb 73f 53f
12:50 4ft 11s 5s 18 20 mph 1027.6mb 73f 53f
dom 01/15 11:50 4ft 8s 5s 18 22 mph 1027.6mb 74f 53f
10:50 4.5ft 11s 5s 18 22 mph 1027.7mb 74f 53f
9:50 4.5ft 6s 5s 18 20 mph 1027.7mb 73f 53f
8:50 4.5ft 11s 5s 20 25 mph 1027.5mb 74f 52f
7:50 4.5ft 11s 5s 20 25 mph 1027.2mb 74f 52f